Terminal Aerodrome Forecast
Issued by NWS

Current Version | Previous Version | Text Only | Print | Product List | Glossary Off
Versions: 1 2 3 4 5 6 7 8 9 10 11 12 13 14 15 16 17 18 19 20 21 22 23 24

000
FTUS41 KRLX 221900 AAA
TAFCKB
TAF AMD
KCKB 221906Z 2219/2318 27006KT P6SM BKN015 BKN035
     FM221940 28018G30KT 3SM TSRA BKN015 BKN035CB
     FM222000 28010G15KT P6SM SHRA SCT015 BKN035CB
     FM230100 28010G15KT P6SM BKN045
     FM231300 30010G15KT P6SM SCT060=

USA.gov is the U.S. government's official web portal to all federal, state and local government web resources and services.